sensor_id;sensor_type;location;lat;lon;timestamp;pressure;altitude;pressure_sealevel;temperature;humidity
62800;BME280;48842;51.046;13.796;2022-11-12T00:00:21;102063.22;;;10.18;64.40
62800;BME280;48842;51.046;13.796;2022-11-12T00:02:46;102061.41;;;10.17;64.41
62800;BME280;48842;51.046;13.796;2022-11-12T00:05:12;102061.41;;;10.17;64.35
62800;BME280;48842;51.046;13.796;2022-11-12T00:07:37;102053.50;;;10.16;64.37
62800;BME280;48842;51.046;13.796;2022-11-12T00:10:03;102062.25;;;10.16;64.36
62800;BME280;48842;51.046;13.796;2022-11-12T00:12:29;102055.25;;;10.15;64.51
62800;BME280;48842;51.046;13.796;2022-11-12T00:14:54;102053.47;;;10.14;64.35
62800;BME280;48842;51.046;13.796;2022-11-12T00:17:19;102050.84;;;10.14;64.55
62800;BME280;48842;51.046;13.796;2022-11-12T00:19:45;102056.91;;;10.13;64.40
62800;BME280;48842;51.046;13.796;2022-11-12T00:22:10;102055.16;;;10.12;64.51
62800;BME280;48842;51.046;13.796;2022-11-12T00:24:35;102063.88;;;10.12;64.48
62800;BME280;48842;51.046;13.796;2022-11-12T00:27:01;102061.22;;;10.11;64.64
62800;BME280;48842;51.046;13.796;2022-11-12T00:29:26;102069.91;;;10.10;64.50
62800;BME280;48842;51.046;13.796;2022-11-12T00:31:51;102058.59;;;10.11;64.56
62800;BME280;48842;51.046;13.796;2022-11-12T00:34:16;102066.47;;;10.11;64.58
62800;BME280;48842;51.046;13.796;2022-11-12T00:36:41;102056.81;;;10.10;64.62
62800;BME280;48842;51.046;13.796;2022-11-12T00:39:07;102060.25;;;10.09;64.78
62800;BME280;48842;51.046;13.796;2022-11-12T00:41:32;102056.72;;;10.07;64.77
62800;BME280;48842;51.046;13.796;2022-11-12T00:43:57;102059.31;;;10.07;64.87
62800;BME280;48842;51.046;13.796;2022-11-12T00:46:22;102054.00;;;10.04;64.67
62800;BME280;48842;51.046;13.796;2022-11-12T00:48:48;102058.41;;;10.05;64.76
62800;BME280;48842;51.046;13.796;2022-11-12T00:51:13;102056.63;;;10.04;64.77
62800;BME280;48842;51.046;13.796;2022-11-12T00:53:38;102051.31;;;10.02;64.88
62800;BME280;48842;51.046;13.796;2022-11-12T00:56:05;102053.06;;;10.02;64.78
62800;BME280;48842;51.046;13.796;2022-11-12T00:58:33;102056.50;;;10.01;64.91
62800;BME280;48842;51.046;13.796;2022-11-12T01:01:14;102063.41;;;9.99;64.94
62800;BME280;48842;51.046;13.796;2022-11-12T01:03:40;102059.91;;;9.98;64.97
62800;BME280;48842;51.046;13.796;2022-11-12T01:06:24;102072.16;;;9.99;64.77
62800;BME280;48842;51.046;13.796;2022-11-12T01:08:50;102073.81;;;9.97;64.81
62800;BME280;48842;51.046;13.796;2022-11-12T01:11:19;102062.41;;;9.95;64.89
62800;BME280;48842;51.046;13.796;2022-11-12T01:13:46;102056.31;;;9.94;64.75
62800;BME280;48842;51.046;13.796;2022-11-12T01:16:17;102066.72;;;9.93;64.79
62800;BME280;48842;51.046;13.796;2022-11-12T01:18:46;102055.34;;;9.92;64.81
62800;BME280;48842;51.046;13.796;2022-11-12T01:21:12;102060.56;;;9.92;64.93
62800;BME280;48842;51.046;13.796;2022-11-12T01:23:39;102064.88;;;9.90;64.92
62800;BME280;48842;51.046;13.796;2022-11-12T01:26:06;102058.69;;;9.88;64.85
62800;BME280;48842;51.046;13.796;2022-11-12T01:28:32;102060.47;;;9.89;64.92
62800;BME280;48842;51.046;13.796;2022-11-12T01:31:18;102063.91;;;9.88;65.07
62800;BME280;48842;51.046;13.796;2022-11-12T01:33:46;102061.31;;;9.88;64.93
62800;BME280;48842;51.046;13.796;2022-11-12T01:36:13;102056.03;;;9.87;64.95
62800;BME280;48842;51.046;13.796;2022-11-12T01:38:40;102061.19;;;9.85;65.00
62800;BME280;48842;51.046;13.796;2022-11-12T01:41:07;102056.88;;;9.86;65.03
62800;BME280;48842;51.046;13.796;2022-11-12T01:43:33;102058.59;;;9.85;65.06
62800;BME280;48842;51.046;13.796;2022-11-12T01:46:01;102056.81;;;9.84;65.06
62800;BME280;48842;51.046;13.796;2022-11-12T01:50:58;102060.31;;;9.85;64.88
62800;BME280;48842;51.046;13.796;2022-11-12T01:53:25;102050.69;;;9.84;65.04
62800;BME280;48842;51.046;13.796;2022-11-12T01:55:52;102050.69;;;9.84;65.06
62800;BME280;48842;51.046;13.796;2022-11-12T01:58:21;102053.34;;;9.85;64.92
62800;BME280;48842;51.046;13.796;2022-11-12T02:00:48;102059.50;;;9.86;64.99
62800;BME280;48842;51.046;13.796;2022-11-12T02:03:18;102052.47;;;9.85;65.18
62800;BME280;48842;51.046;13.796;2022-11-12T02:06:08;102054.25;;;9.86;65.08
62800;BME280;48842;51.046;13.796;2022-11-12T02:08:32;102057.75;;;9.86;65.03
62800;BME280;48842;51.046;13.796;2022-11-12T02:11:10;102054.22;;;9.84;65.08
62800;BME280;48842;51.046;13.796;2022-11-12T02:13:36;102055.13;;;9.86;64.91
62800;BME280;48842;51.046;13.796;2022-11-12T02:18:55;102043.78;;;9.86;64.97
62800;BME280;48842;51.046;13.796;2022-11-12T02:21:22;102042.88;;;9.85;65.07
62800;BME280;48842;51.046;13.796;2022-11-12T02:23:56;102048.13;;;9.85;65.09
62800;BME280;48842;51.046;13.796;2022-11-12T02:26:22;102049.91;;;9.86;65.05
62800;BME280;48842;51.046;13.796;2022-11-12T02:28:47;102052.47;;;9.85;65.04
62800;BME280;48842;51.046;13.796;2022-11-12T02:31:12;102053.34;;;9.85;64.92
62800;BME280;48842;51.046;13.796;2022-11-12T02:33:38;102054.22;;;9.84;64.91
62800;BME280;48842;51.046;13.796;2022-11-12T02:36:03;102048.88;;;9.83;64.86
62800;BME280;48842;51.046;13.796;2022-11-12T02:38:28;102054.13;;;9.83;64.83
62800;BME280;48842;51.046;13.796;2022-11-12T02:40:54;102036.66;;;9.82;64.94
62800;BME280;48842;51.046;13.796;2022-11-12T02:43:19;102045.34;;;9.81;65.06
62800;BME280;48842;51.046;13.796;2022-11-12T02:45:45;102051.41;;;9.79;64.96
62800;BME280;48842;51.046;13.796;2022-11-12T02:48:10;102048.72;;;9.78;64.78
62800;BME280;48842;51.046;13.796;2022-11-12T02:50:35;102053.16;;;9.79;64.93
62800;BME280;48842;51.046;13.796;2022-11-12T02:53:00;102051.34;;;9.78;65.03
62800;BME280;48842;51.046;13.796;2022-11-12T02:55:26;102053.16;;;9.79;65.09
62800;BME280;48842;51.046;13.796;2022-11-12T02:57:56;102052.22;;;9.77;64.92
62800;BME280;48842;51.046;13.796;2022-11-12T03:00:21;102059.09;;;9.75;64.90
62800;BME280;48842;51.046;13.796;2022-11-12T03:02:47;102058.28;;;9.76;64.94
62800;BME280;48842;51.046;13.796;2022-11-12T03:05:23;102062.56;;;9.74;65.06
62800;BME280;48842;51.046;13.796;2022-11-12T03:07:49;102060.78;;;9.73;65.16
62800;BME280;48842;51.046;13.796;2022-11-12T03:10:14;102057.25;;;9.72;65.11
62800;BME280;48842;51.046;13.796;2022-11-12T03:12:39;102059.00;;;9.72;64.87
62800;BME280;48842;51.046;13.796;2022-11-12T03:15:05;102056.38;;;9.72;64.84
62800;BME280;48842;51.046;13.796;2022-11-12T03:17:33;102056.38;;;9.72;65.08
62800;BME280;48842;51.046;13.796;2022-11-12T03:19:58;102057.19;;;9.71;64.93
62800;BME280;48842;51.046;13.796;2022-11-12T03:22:23;102050.16;;;9.68;65.03
62800;BME280;48842;51.046;13.796;2022-11-12T03:24:49;102059.72;;;9.68;65.04
62800;BME280;48842;51.046;13.796;2022-11-12T03:27:15;102057.97;;;9.67;64.93
62800;BME280;48842;51.046;13.796;2022-11-12T03:29:40;102059.66;;;9.66;65.09
62800;BME280;48842;51.046;13.796;2022-11-12T03:32:05;102055.19;;;9.64;65.09
62800;BME280;48842;51.046;13.796;2022-11-12T03:34:31;102063.06;;;9.64;65.17
62800;BME280;48842;51.046;13.796;2022-11-12T03:36:56;102063.06;;;9.64;64.92
62800;BME280;48842;51.046;13.796;2022-11-12T03:39:21;102068.28;;;9.64;65.22
62800;BME280;48842;51.046;13.796;2022-11-12T03:41:46;102069.97;;;9.61;64.90
62800;BME280;48842;51.046;13.796;2022-11-12T03:44:12;102062.94;;;9.60;64.89
62800;BME280;48842;51.046;13.796;2022-11-12T03:46:37;102063.81;;;9.59;65.08
62800;BME280;48842;51.046;13.796;2022-11-12T03:49:02;102062.84;;;9.57;64.91
62800;BME280;48842;51.046;13.796;2022-11-12T03:51:27;102061.00;;;9.55;65.05
62800;BME280;48842;51.046;13.796;2022-11-12T03:53:53;102060.94;;;9.53;64.97
62800;BME280;48842;51.046;13.796;2022-11-12T03:56:18;102061.75;;;9.51;65.02
62800;BME280;48842;51.046;13.796;2022-11-12T03:58:43;102067.75;;;9.48;64.93
62800;BME280;48842;51.046;13.796;2022-11-12T04:01:08;102059.84;;;9.47;64.94
62800;BME280;48842;51.046;13.796;2022-11-12T04:03:34;102071.09;;;9.44;64.83
62800;BME280;48842;51.046;13.796;2022-11-12T04:05:59;102065.75;;;9.41;64.89
62800;BME280;48842;51.046;13.796;2022-11-12T04:08:43;102061.22;;;9.37;64.87
62800;BME280;48842;51.046;13.796;2022-11-12T04:11:11;102056.72;;;9.33;64.57
62800;BME280;48842;51.046;13.796;2022-11-12T04:13:37;102067.06;;;9.30;64.62
62800;BME280;48842;51.046;13.796;2022-11-12T04:18:59;102059.81;;;9.22;64.54
62800;BME280;48842;51.046;13.796;2022-11-12T04:21:48;102058.81;;;9.19;64.57
62800;BME280;48842;51.046;13.796;2022-11-12T04:24:31;102064.81;;;9.16;64.63
62800;BME280;48842;51.046;13.796;2022-11-12T04:27:24;102062.09;;;9.13;64.54
62800;BME280;48842;51.046;13.796;2022-11-12T04:29:51;102064.59;;;9.10;64.60
62800;BME280;48842;51.046;13.796;2022-11-12T04:32:37;102063.56;;;9.06;64.35
62800;BME280;48842;51.046;13.796;2022-11-12T04:35:03;102060.03;;;9.04;64.47
62800;BME280;48842;51.046;13.796;2022-11-12T04:37:31;102066.94;;;9.02;64.72
62800;BME280;48842;51.046;13.796;2022-11-12T04:42:56;102065.91;;;8.99;64.71
62800;BME280;48842;51.046;13.796;2022-11-12T04:45:42;102066.66;;;8.96;64.65
62800;BME280;48842;51.046;13.796;2022-11-12T04:48:08;102063.13;;;8.94;64.68
62800;BME280;48842;51.046;13.796;2022-11-12T04:50:34;102070.06;;;8.94;64.59
62800;BME280;48842;51.046;13.796;2022-11-12T04:53:00;102072.59;;;8.92;64.76
62800;BME280;48842;51.046;13.796;2022-11-12T04:55:25;102066.44;;;8.90;64.66
62800;BME280;48842;51.046;13.796;2022-11-12T04:57:50;102073.34;;;8.88;64.68
62800;BME280;48842;51.046;13.796;2022-11-12T05:00:16;102079.38;;;8.87;64.83
62800;BME280;48842;51.046;13.796;2022-11-12T05:02:42;102073.34;;;8.88;64.66
62800;BME280;48842;51.046;13.796;2022-11-12T05:05:07;102079.38;;;8.87;64.48
62800;BME280;48842;51.046;13.796;2022-11-12T05:07:32;102079.31;;;8.85;64.68
62800;BME280;48842;51.046;13.796;2022-11-12T05:09:58;102073.22;;;8.85;64.92
62800;BME280;48842;51.046;13.796;2022-11-12T05:12:23;102077.53;;;8.84;64.90
62800;BME280;48842;51.046;13.796;2022-11-12T05:14:48;102079.28;;;8.84;64.70
62800;BME280;48842;51.046;13.796;2022-11-12T05:17:14;102077.53;;;8.84;64.98
62800;BME280;48842;51.046;13.796;2022-11-12T05:19:39;102087.97;;;8.84;65.05
62800;BME280;48842;51.046;13.796;2022-11-12T05:22:04;102084.50;;;8.84;65.16
62800;BME280;48842;51.046;13.796;2022-11-12T05:24:31;102088.81;;;8.83;65.10
62800;BME280;48842;51.046;13.796;2022-11-12T05:26:57;102090.53;;;8.83;65.04
62800;BME280;48842;51.046;13.796;2022-11-12T05:29:22;102094.13;;;8.85;65.44
62800;BME280;48842;51.046;13.796;2022-11-12T05:31:47;102095.00;;;8.85;65.50
62800;BME280;48842;51.046;13.796;2022-11-12T05:34:13;102095.94;;;8.87;65.62
62800;BME280;48842;51.046;13.796;2022-11-12T05:36:38;102097.78;;;8.90;65.88
62800;BME280;48842;51.046;13.796;2022-11-12T05:39:03;102093.44;;;8.90;65.64
62800;BME280;48842;51.046;13.796;2022-11-12T05:41:29;102092.69;;;8.93;65.71
62800;BME280;48842;51.046;13.796;2022-11-12T05:43:54;102103.19;;;8.95;65.82
62800;BME280;48842;51.046;13.796;2022-11-12T05:46:20;102097.97;;;8.95;65.88
62800;BME280;48842;51.046;13.796;2022-11-12T05:48:45;102101.50;;;8.95;65.90
62800;BME280;48842;51.046;13.796;2022-11-12T05:51:10;102103.25;;;8.96;66.04
62800;BME280;48842;51.046;13.796;2022-11-12T05:53:38;102103.25;;;8.96;66.18
62800;BME280;48842;51.046;13.796;2022-11-12T05:56:07;102101.63;;;8.98;66.10
62800;BME280;48842;51.046;13.796;2022-11-12T05:58:34;102098.09;;;8.98;66.10
62800;BME280;48842;51.046;13.796;2022-11-12T06:01:00;102103.38;;;8.99;66.21
62800;BME280;48842;51.046;13.796;2022-11-12T06:03:25;102102.50;;;8.99;66.19
62800;BME280;48842;51.046;13.796;2022-11-12T06:05:51;102103.38;;;8.99;66.13
62800;BME280;48842;51.046;13.796;2022-11-12T06:08:17;102099.94;;;9.00;66.04
62800;BME280;48842;51.046;13.796;2022-11-12T06:10:53;102105.16;;;9.00;66.31
62800;BME280;48842;51.046;13.796;2022-11-12T06:13:20;102105.22;;;9.02;66.03
62800;BME280;48842;51.046;13.796;2022-11-12T06:15:46;102105.22;;;9.02;65.95
62800;BME280;48842;51.046;13.796;2022-11-12T06:18:11;102113.06;;;9.02;66.02
62800;BME280;48842;51.046;13.796;2022-11-12T06:20:36;102115.72;;;9.03;66.17
62800;BME280;48842;51.046;13.796;2022-11-12T06:23:02;102111.41;;;9.04;65.89
62800;BME280;48842;51.046;13.796;2022-11-12T06:25:27;102110.50;;;9.03;66.10
62800;BME280;48842;51.046;13.796;2022-11-12T06:27:53;102111.38;;;9.02;66.07
62800;BME280;48842;51.046;13.796;2022-11-12T06:30:18;102114.84;;;9.03;65.96
62800;BME280;48842;51.046;13.796;2022-11-12T06:32:47;102114.84;;;9.03;66.01
62800;BME280;48842;51.046;13.796;2022-11-12T06:35:13;102114.03;;;9.04;65.93
62800;BME280;48842;51.046;13.796;2022-11-12T06:37:39;102116.72;;;9.05;65.89
62800;BME280;48842;51.046;13.796;2022-11-12T06:40:06;102111.47;;;9.05;65.96
62800;BME280;48842;51.046;13.796;2022-11-12T06:42:31;102118.47;;;9.06;65.78
62800;BME280;48842;51.046;13.796;2022-11-12T06:44:56;102126.38;;;9.08;65.76
62800;BME280;48842;51.046;13.796;2022-11-12T06:47:22;102122.00;;;9.07;65.69
62800;BME280;48842;51.046;13.796;2022-11-12T06:49:47;102125.44;;;9.06;65.68
62800;BME280;48842;51.046;13.796;2022-11-12T06:52:14;102128.88;;;9.05;65.59
62800;BME280;48842;51.046;13.796;2022-11-12T06:54:39;102126.19;;;9.03;65.50
62800;BME280;48842;51.046;13.796;2022-11-12T06:57:04;102133.16;;;9.03;65.38
62800;BME280;48842;51.046;13.796;2022-11-12T06:59:30;102135.78;;;9.03;65.25
62800;BME280;48842;51.046;13.796;2022-11-12T07:01:55;102129.66;;;9.02;65.45
62800;BME280;48842;51.046;13.796;2022-11-12T07:04:20;102138.38;;;9.03;65.23
62800;BME280;48842;51.046;13.796;2022-11-12T07:06:45;102133.97;;;9.02;65.36
62800;BME280;48842;51.046;13.796;2022-11-12T07:09:11;102127.94;;;9.03;65.21
62800;BME280;48842;51.046;13.796;2022-11-12T07:11:36;102127.09;;;9.04;65.36
62800;BME280;48842;51.046;13.796;2022-11-12T07:14:04;102132.34;;;9.04;65.27
62800;BME280;48842;51.046;13.796;2022-11-12T07:16:30;102127.97;;;9.04;65.40
62800;BME280;48842;51.046;13.796;2022-11-12T07:18:56;102133.22;;;9.04;65.12
62800;BME280;48842;51.046;13.796;2022-11-12T07:21:21;102133.28;;;9.06;64.97
62800;BME280;48842;51.046;13.796;2022-11-12T07:23:46;102130.66;;;9.06;65.11
62800;BME280;48842;51.046;13.796;2022-11-12T07:26:15;102133.28;;;9.06;65.00
62800;BME280;48842;51.046;13.796;2022-11-12T07:28:41;102127.97;;;9.04;64.79
62800;BME280;48842;51.046;13.796;2022-11-12T07:31:09;102134.94;;;9.04;64.96
62800;BME280;48842;51.046;13.796;2022-11-12T07:33:34;102126.94;;;9.01;64.71
62800;BME280;48842;51.046;13.796;2022-11-12T07:36:11;102133.97;;;9.02;64.87
62800;BME280;48842;51.046;13.796;2022-11-12T07:38:38;102127.88;;;9.01;64.87
62800;BME280;48842;51.046;13.796;2022-11-12T07:41:14;102136.59;;;9.02;64.98
62800;BME280;48842;51.046;13.796;2022-11-12T07:43:40;102140.19;;;9.04;64.98
62800;BME280;48842;51.046;13.796;2022-11-12T07:46:14;102138.38;;;9.03;65.10
62800;BME280;48842;51.046;13.796;2022-11-12T07:48:40;102137.56;;;9.04;64.93
62800;BME280;48842;51.046;13.796;2022-11-12T07:51:10;102134.09;;;9.05;64.71
62800;BME280;48842;51.046;13.796;2022-11-12T07:53:36;102132.34;;;9.04;64.87
62800;BME280;48842;51.046;13.796;2022-11-12T07:56:03;102132.34;;;9.04;64.73
62800;BME280;48842;51.046;13.796;2022-11-12T07:58:31;102128.03;;;9.06;64.81
62800;BME280;48842;51.046;13.796;2022-11-12T08:00:57;102133.31;;;9.07;64.64
62800;BME280;48842;51.046;13.796;2022-11-12T08:03:22;102130.78;;;9.09;64.70
62800;BME280;48842;51.046;13.796;2022-11-12T08:05:48;102129.91;;;9.08;64.46
62800;BME280;48842;51.046;13.796;2022-11-12T08:08:13;102120.31;;;9.09;64.56
62800;BME280;48842;51.046;13.796;2022-11-12T08:10:38;102123.88;;;9.11;64.67
62800;BME280;48842;51.046;13.796;2022-11-12T08:13:04;102122.16;;;9.12;64.71
62800;BME280;48842;51.046;13.796;2022-11-12T08:15:29;102123.03;;;9.12;64.70
62800;BME280;48842;51.046;13.796;2022-11-12T08:17:55;102127.44;;;9.13;64.58
62800;BME280;48842;51.046;13.796;2022-11-12T08:20:20;102124.00;;;9.14;64.59
62800;BME280;48842;51.046;13.796;2022-11-12T08:22:45;102120.56;;;9.15;64.56
62800;BME280;48842;51.046;13.796;2022-11-12T08:25:11;102126.69;;;9.16;64.59
62800;BME280;48842;51.046;13.796;2022-11-12T08:27:36;102128.44;;;9.17;64.50
62800;BME280;48842;51.046;13.796;2022-11-12T08:30:02;102131.97;;;9.17;64.67
62800;BME280;48842;51.046;13.796;2022-11-12T08:32:28;102125.00;;;9.18;64.63
62800;BME280;48842;51.046;13.796;2022-11-12T08:34:53;102133.78;;;9.20;64.62
62800;BME280;48842;51.046;13.796;2022-11-12T08:37:19;102126.03;;;9.21;64.63
62800;BME280;48842;51.046;13.796;2022-11-12T08:39:44;102131.38;;;9.24;64.76
62800;BME280;48842;51.046;13.796;2022-11-12T08:42:09;102121.84;;;9.26;64.80
62800;BME280;48842;51.046;13.796;2022-11-12T08:44:34;102124.59;;;9.30;64.60
62800;BME280;48842;51.046;13.796;2022-11-12T08:47:00;102123.94;;;9.35;64.67
62800;BME280;48842;51.046;13.796;2022-11-12T08:49:25;102125.84;;;9.39;64.74
62800;BME280;48842;51.046;13.796;2022-11-12T08:51:50;102124.34;;;9.46;64.80
62800;BME280;48842;51.046;13.796;2022-11-12T08:54:16;102121.97;;;9.52;64.66
62800;BME280;48842;51.046;13.796;2022-11-12T08:56:41;102123.13;;;9.60;64.83
62800;BME280;48842;51.046;13.796;2022-11-12T08:59:06;102126.81;;;9.66;64.79
62800;BME280;48842;51.046;13.796;2022-11-12T09:01:32;102122.56;;;9.69;64.68
62800;BME280;48842;51.046;13.796;2022-11-12T09:03:57;102128.00;;;9.74;64.74
62800;BME280;48842;51.046;13.796;2022-11-12T09:06:23;102133.34;;;9.77;64.79
62800;BME280;48842;51.046;13.796;2022-11-12T09:08:48;102129.97;;;9.81;64.63
62800;BME280;48842;51.046;13.796;2022-11-12T09:11:14;102118.84;;;9.87;64.66
62800;BME280;48842;51.046;13.796;2022-11-12T09:13:39;102120.06;;;9.96;64.88
62800;BME280;48842;51.046;13.796;2022-11-12T09:16:06;102124.78;;;10.07;64.60
62800;BME280;48842;51.046;13.796;2022-11-12T09:18:32;102133.75;;;10.13;64.46
62800;BME280;48842;51.046;13.796;2022-11-12T09:21:08;102123.50;;;10.20;64.32
62800;BME280;48842;51.046;13.796;2022-11-12T09:23:35;102120.16;;;10.24;64.14
62800;BME280;48842;51.046;13.796;2022-11-12T09:26:00;102115.00;;;10.27;63.90
62800;BME280;48842;51.046;13.796;2022-11-12T09:28:26;102108.19;;;10.32;63.95
62800;BME280;48842;51.046;13.796;2022-11-12T09:30:53;102103.06;;;10.35;63.90
62800;BME280;48842;51.046;13.796;2022-11-12T09:33:22;102113.75;;;10.40;63.64
62800;BME280;48842;51.046;13.796;2022-11-12T09:35:48;102109.53;;;10.45;63.59
62800;BME280;48842;51.046;13.796;2022-11-12T09:38:13;102116.66;;;10.49;63.56
62800;BME280;48842;51.046;13.796;2022-11-12T09:43:26;102110.81;;;10.58;63.27
62800;BME280;48842;51.046;13.796;2022-11-12T09:46:03;102106.56;;;10.61;63.10
62800;BME280;48842;51.046;13.796;2022-11-12T09:48:36;102113.69;;;10.65;63.13
62800;BME280;48842;51.046;13.796;2022-11-12T09:51:08;102113.78;;;10.69;63.03
62800;BME280;48842;51.046;13.796;2022-11-12T09:53:55;102111.22;;;10.70;62.78
62800;BME280;48842;51.046;13.796;2022-11-12T09:56:21;102106.16;;;10.75;62.68
62800;BME280;48842;51.046;13.796;2022-11-12T09:58:47;102104.44;;;10.77;62.45
62800;BME280;48842;51.046;13.796;2022-11-12T10:01:21;102104.50;;;10.78;62.49
62800;BME280;48842;51.046;13.796;2022-11-12T10:03:54;102110.63;;;10.79;62.28
62800;BME280;48842;51.046;13.796;2022-11-12T10:06:33;102099.25;;;10.78;61.96
62800;BME280;48842;51.046;13.796;2022-11-12T10:09:01;102104.53;;;10.80;62.09
62800;BME280;48842;51.046;13.796;2022-11-12T10:11:49;102108.03;;;10.80;61.89
62800;BME280;48842;51.046;13.796;2022-11-12T10:14:49;102104.63;;;10.83;61.87
62800;BME280;48842;51.046;13.796;2022-11-12T10:20:14;102106.56;;;10.89;61.94
62800;BME280;48842;51.046;13.796;2022-11-12T10:25:16;102110.38;;;10.98;62.09
62800;BME280;48842;51.046;13.796;2022-11-12T10:27:43;102116.63;;;11.04;61.88
62800;BME280;48842;51.046;13.796;2022-11-12T10:30:20;102113.28;;;11.08;61.86
62800;BME280;48842;51.046;13.796;2022-11-12T10:32:47;102101.16;;;11.11;61.87
62800;BME280;48842;51.046;13.796;2022-11-12T10:35:19;102102.13;;;11.15;61.70
62800;BME280;48842;51.046;13.796;2022-11-12T10:38:03;102090.88;;;11.19;61.46
62800;BME280;48842;51.046;13.796;2022-11-12T10:40:39;102088.34;;;11.22;61.48
62800;BME280;48842;51.046;13.796;2022-11-12T10:43:20;102083.22;;;11.27;61.30
62800;BME280;48842;51.046;13.796;2022-11-12T10:45:47;102084.22;;;11.30;61.35
62800;BME280;48842;51.046;13.796;2022-11-12T10:48:30;102090.50;;;11.35;61.16
62800;BME280;48842;51.046;13.796;2022-11-12T10:50:58;102085.38;;;11.40;61.38
62800;BME280;48842;51.046;13.796;2022-11-12T10:53:34;102086.44;;;11.47;61.34
62800;BME280;48842;51.046;13.796;2022-11-12T10:56:21;102084.81;;;11.52;61.28
62800;BME280;48842;51.046;13.796;2022-11-12T10:59:16;102087.66;;;11.58;61.10
62800;BME280;48842;51.046;13.796;2022-11-12T11:01:43;102089.53;;;11.62;61.27
62800;BME280;48842;51.046;13.796;2022-11-12T11:04:21;102082.66;;;11.67;60.92
62800;BME280;48842;51.046;13.796;2022-11-12T11:09:25;102082.94;;;11.78;60.88
62800;BME280;48842;51.046;13.796;2022-11-12T11:11:52;102085.72;;;11.83;60.95
62800;BME280;48842;51.046;13.796;2022-11-12T11:14:31;102078.81;;;11.88;60.75
62800;BME280;48842;51.046;13.796;2022-11-12T11:17:04;102087.75;;;11.93;60.67
62800;BME280;48842;51.046;13.796;2022-11-12T11:19:40;102076.53;;;11.99;60.74
62800;BME280;48842;51.046;13.796;2022-11-12T11:22:32;102076.66;;;12.03;60.39
62800;BME280;48842;51.046;13.796;2022-11-12T11:25:18;102075.03;;;12.09;60.01
62800;BME280;48842;51.046;13.796;2022-11-12T11:27:49;102080.44;;;12.15;60.29
62800;BME280;48842;51.046;13.796;2022-11-12T11:30:19;102077.06;;;12.20;60.07
62800;BME280;48842;51.046;13.796;2022-11-12T11:35:58;102068.56;;;12.31;59.44
62800;BME280;48842;51.046;13.796;2022-11-12T11:39:02;102066.97;;;12.36;59.27
62800;BME280;48842;51.046;13.796;2022-11-12T11:41:46;102066.22;;;12.42;58.88
62800;BME280;48842;51.046;13.796;2022-11-12T11:47:21;102058.59;;;12.52;58.27
62800;BME280;48842;51.046;13.796;2022-11-12T11:50:04;102045.53;;;12.57;58.16
62800;BME280;48842;51.046;13.796;2022-11-12T11:52:44;102043.94;;;12.62;57.86
62800;BME280;48842;51.046;13.796;2022-11-12T12:00:41;102032.00;;;12.77;57.60
62800;BME280;48842;51.046;13.796;2022-11-12T12:06:27;102029.56;;;12.86;56.88
62800;BME280;48842;51.046;13.796;2022-11-12T12:11:56;102019.19;;;12.93;55.91
62800;BME280;48842;51.046;13.796;2022-11-12T12:14:40;102014.91;;;12.97;56.08
62800;BME280;48842;51.046;13.796;2022-11-12T12:20:20;102014.16;;;13.04;55.53
62800;BME280;48842;51.046;13.796;2022-11-12T12:22:57;102014.25;;;13.09;55.80
62800;BME280;48842;51.046;13.796;2022-11-12T12:25:30;102009.94;;;13.13;55.66
62800;BME280;48842;51.046;13.796;2022-11-12T12:30:40;102008.34;;;13.19;55.39
62800;BME280;48842;51.046;13.796;2022-11-12T12:33:16;102010.19;;;13.23;55.42
62800;BME280;48842;51.046;13.796;2022-11-12T12:38:20;101997.16;;;13.31;55.04
62800;BME280;48842;51.046;13.796;2022-11-12T12:41:00;102003.44;;;13.36;54.68
62800;BME280;48842;51.046;13.796;2022-11-12T12:46:19;102003.63;;;13.46;54.42
62800;BME280;48842;51.046;13.796;2022-11-12T12:48:47;101999.31;;;13.49;54.39
62800;BME280;48842;51.046;13.796;2022-11-12T12:51:16;101999.38;;;13.52;54.43
62800;BME280;48842;51.046;13.796;2022-11-12T12:53:41;102002.06;;;13.55;54.34
62800;BME280;48842;51.046;13.796;2022-11-12T12:58:48;102003.03;;;13.62;54.07
62800;BME280;48842;51.046;13.796;2022-11-12T13:03:47;101990.00;;;13.68;53.80
62800;BME280;48842;51.046;13.796;2022-11-12T13:08:51;101990.97;;;13.75;53.56
62800;BME280;48842;51.046;13.796;2022-11-12T13:17:04;101990.31;;;13.87;52.87
62800;BME280;48842;51.046;13.796;2022-11-12T13:19:37;101995.63;;;13.90;52.75
62800;BME280;48842;51.046;13.796;2022-11-12T13:32:42;101985.63;;;14.21;51.97
62800;BME280;48842;51.046;13.796;2022-11-12T13:40:19;101984.22;;;14.44;51.16
62800;BME280;48842;51.046;13.796;2022-11-12T13:42:48;101977.25;;;14.51;50.85
62800;BME280;48842;51.046;13.796;2022-11-12T13:45:22;101979.13;;;14.58;50.76
62800;BME280;48842;51.046;13.796;2022-11-12T13:47:49;101972.22;;;14.65;51.09
62800;BME280;48842;51.046;13.796;2022-11-12T13:50:18;101975.81;;;14.73;50.95
62800;BME280;48842;51.046;13.796;2022-11-12T13:52:45;101965.38;;;14.79;50.99
62800;BME280;48842;51.046;13.796;2022-11-12T13:55:20;101968.97;;;14.86;50.88
62800;BME280;48842;51.046;13.796;2022-11-12T13:57:54;101968.19;;;14.93;51.02
62800;BME280;48842;51.046;13.796;2022-11-12T14:00:28;101969.13;;;14.98;50.86
62800;BME280;48842;51.046;13.796;2022-11-12T14:03:03;101963.91;;;15.03;51.17
62800;BME280;48842;51.046;13.796;2022-11-12T14:05:32;101964.78;;;15.05;51.19
62800;BME280;48842;51.046;13.796;2022-11-12T14:08:31;101963.06;;;15.06;50.45
62800;BME280;48842;51.046;13.796;2022-11-12T14:11:22;101953.38;;;15.06;51.10
62800;BME280;48842;51.046;13.796;2022-11-12T14:17:39;101958.59;;;15.00;51.07